createdAt,value
2023-02-16T00:01:20.608Z,99212.70
2023-02-16T00:03:47.171Z,99213.72
2023-02-16T00:06:13.780Z,99211.13
2023-02-16T00:08:40.680Z,99211.44
2023-02-16T00:11:18.914Z,99213.61
2023-02-16T00:13:45.368Z,99209.00
2023-02-16T00:16:19.554Z,99212.06
2023-02-16T00:18:46.765Z,99204.41
2023-02-16T00:21:13.549Z,99207.98
2023-02-16T00:23:40.354Z,99205.60
2023-02-16T00:26:22.463Z,99202.73
2023-02-16T00:28:52.701Z,99205.10
2023-02-16T00:31:22.075Z,99200.84
2023-02-16T00:33:49.476Z,99203.88
2023-02-16T00:36:16.035Z,99200.62
2023-02-16T00:38:42.824Z,99207.71
2023-02-16T00:41:17.236Z,99206.46
2023-02-16T00:43:43.652Z,99203.70
2023-02-16T00:46:10.385Z,99198.23
2023-02-16T00:48:36.954Z,99194.64
2023-02-16T00:51:11.130Z,99194.09
2023-02-16T00:53:46.941Z,99188.95
2023-02-16T00:56:20.161Z,99185.02
2023-02-16T00:58:49.027Z,99180.63
2023-02-16T01:01:18.103Z,99180.09
2023-02-16T01:03:44.910Z,99172.61
2023-02-16T01:06:12.063Z,99168.73
2023-02-16T01:08:38.501Z,99164.70
2023-02-16T01:11:07.637Z,99165.43
2023-02-16T01:13:46.160Z,99161.92
2023-02-16T01:16:27.856Z,99161.20
2023-02-16T01:18:54.659Z,99158.66
2023-02-16T01:21:22.124Z,99154.98
2023-02-16T01:23:48.664Z,99157.72
2023-02-16T01:26:19.772Z,99159.45
2023-02-16T01:28:47.384Z,99155.19
2023-02-16T01:31:14.990Z,99153.14
2023-02-16T01:33:42.864Z,99148.36
2023-02-16T01:36:43.367Z,99144.61
2023-02-16T01:39:16.006Z,99140.33
2023-02-16T01:41:49.333Z,99137.60
2023-02-16T01:44:21.048Z,99137.57
2023-02-16T01:47:04.451Z,99132.11
2023-02-16T01:49:31.311Z,99129.89
2023-02-16T01:52:37.973Z,99129.85
2023-02-16T01:55:07.224Z,99123.69
2023-02-16T01:57:59.610Z,99117.70
2023-02-16T02:00:51.189Z,99114.60
2023-02-16T02:03:21.244Z,99109.48
2023-02-16T02:05:50.277Z,99107.80
2023-02-16T02:08:25.837Z,99106.42
2023-02-16T02:11:14.388Z,99098.76
2023-02-16T02:13:47.497Z,99097.38
2023-02-16T02:16:19.718Z,99094.16
2023-02-16T02:18:46.784Z,99092.30
2023-02-16T02:21:41.726Z,99090.27
2023-02-16T02:24:23.480Z,99090.40
2023-02-16T02:27:07.040Z,99093.14
2023-02-16T02:30:01.802Z,99091.93
2023-02-16T02:32:28.346Z,99088.31
2023-02-16T02:35:25.443Z,99090.31
2023-02-16T02:38:32.330Z,99088.58
2023-02-16T02:41:32.966Z,99087.48
2023-02-16T02:44:06.773Z,99081.79
2023-02-16T02:46:35.735Z,99076.28
2023-02-16T02:49:02.411Z,99076.07
2023-02-16T02:51:29.097Z,99072.98
2023-02-16T02:54:29.980Z,99067.93
2023-02-16T02:57:02.777Z,99063.52
2023-02-16T02:59:31.711Z,99061.13
2023-02-16T03:02:01.386Z,99057.88
2023-02-16T03:04:32.316Z,99055.68
2023-02-16T03:07:01.574Z,99055.98
2023-02-16T03:09:28.628Z,99056.46
2023-02-16T03:11:57.491Z,99065.42
2023-02-16T03:14:37.884Z,99070.17
2023-02-16T03:17:10.742Z,99069.09
2023-02-16T03:19:40.244Z,99073.25
2023-02-16T03:22:06.719Z,99076.06
2023-02-16T03:24:33.952Z,99072.80
2023-02-16T03:27:02.197Z,99069.73
2023-02-16T03:29:29.398Z,99071.44
2023-02-16T03:31:57.322Z,99072.42
2023-02-16T03:34:25.645Z,99074.83
2023-02-16T03:36:56.520Z,99071.45
2023-02-16T03:39:23.472Z,99073.23
2023-02-16T03:41:52.223Z,99072.91
2023-02-16T03:44:19.429Z,99071.21
2023-02-16T03:46:46.517Z,99076.13
2023-02-16T03:49:12.961Z,99075.09
2023-02-16T03:51:39.401Z,99076.23
2023-02-16T03:54:05.925Z,99074.55
2023-02-16T03:56:32.584Z,99072.46
2023-02-16T03:58:59.132Z,99076.30
2023-02-16T04:01:26.756Z,99079.27
2023-02-16T04:03:53.380Z,99077.75
2023-02-16T04:06:20.089Z,99077.04
2023-02-16T04:08:46.727Z,99083.98
2023-02-16T04:11:13.772Z,99082.58
2023-02-16T04:13:40.405Z,99082.04
2023-02-16T04:16:07.497Z,99078.56
2023-02-16T04:18:33.955Z,99074.76
2023-02-16T04:21:00.671Z,99075.02
2023-02-16T04:23:27.178Z,99076.98
2023-02-16T04:25:53.834Z,99077.61
2023-02-16T04:28:20.298Z,99076.20
2023-02-16T04:30:46.912Z,99081.63
2023-02-16T04:33:13.703Z,99080.90
2023-02-16T04:35:40.516Z,99076.65
2023-02-16T04:38:07.168Z,99076.80
2023-02-16T04:40:33.712Z,99073.73
2023-02-16T04:43:00.228Z,99073.41
2023-02-16T04:45:26.799Z,99069.86
2023-02-16T04:47:53.354Z,99069.09
2023-02-16T04:50:20.173Z,99069.58
2023-02-16T04:52:46.850Z,99064.35
2023-02-16T04:55:13.324Z,99068.96
2023-02-16T04:57:40.058Z,99074.17
2023-02-16T05:00:09.712Z,99072.98
2023-02-16T05:02:36.235Z,99078.17
2023-02-16T05:05:02.886Z,99078.31
2023-02-16T05:07:29.425Z,99081.55
2023-02-16T05:09:56.590Z,99082.98
2023-02-16T05:12:23.075Z,99076.92
2023-02-16T05:14:49.888Z,99073.66
2023-02-16T05:17:23.160Z,99063.65
2023-02-16T05:19:53.216Z,99065.19
2023-02-16T05:22:21.953Z,99066.89
2023-02-16T05:24:49.549Z,99062.45
2023-02-16T05:27:19.817Z,99060.20
2023-02-16T05:29:46.454Z,99062.10
2023-02-16T05:32:13.099Z,99065.34
2023-02-16T05:34:40.004Z,99068.57
2023-02-16T05:37:06.642Z,99067.04
2023-02-16T05:39:33.805Z,99065.30
2023-02-16T05:42:00.351Z,99066.59
2023-02-16T05:44:27.090Z,99062.30
2023-02-16T05:46:53.635Z,99064.49
2023-02-16T05:49:20.247Z,99060.94
2023-02-16T05:51:46.815Z,99062.80
2023-02-16T05:54:14.376Z,99065.22
2023-02-16T05:56:40.940Z,99062.86
2023-02-16T05:59:07.407Z,99059.50
2023-02-16T06:01:33.909Z,99057.66
2023-02-16T06:04:00.473Z,99058.17
2023-02-16T06:06:27.077Z,99058.38
2023-02-16T06:08:53.569Z,99059.13
2023-02-16T06:11:20.344Z,99059.36
2023-02-16T06:13:46.798Z,99055.36
2023-02-16T06:16:13.250Z,99053.73
2023-02-16T06:18:39.764Z,99053.86
2023-02-16T06:21:06.463Z,99052.46
2023-02-16T06:23:32.991Z,99052.35
2023-02-16T06:25:59.706Z,99053.02
2023-02-16T06:28:26.570Z,99049.59
2023-02-16T06:30:53.220Z,99054.23
2023-02-16T06:33:19.836Z,99055.99
2023-02-16T06:35:46.412Z,99057.17
2023-02-16T06:38:13.021Z,99059.13
2023-02-16T06:40:39.586Z,99058.70
2023-02-16T06:43:06.192Z,99056.89
2023-02-16T06:45:32.608Z,99054.70
2023-02-16T06:47:59.175Z,99056.61
2023-02-16T06:50:25.723Z,99054.09
2023-02-16T06:52:52.424Z,99060.42
2023-02-16T06:55:18.903Z,99053.91
2023-02-16T06:57:45.361Z,99052.33
2023-02-16T07:00:12.610Z,99048.81
2023-02-16T07:02:39.091Z,99046.17
2023-02-16T07:05:05.728Z,99048.59
2023-02-16T07:07:32.177Z,99051.51
2023-02-16T07:10:00.296Z,99050.21
2023-02-16T07:12:27.047Z,99049.38
2023-02-16T07:14:53.587Z,99049.95
2023-02-16T07:17:20.529Z,99049.46
2023-02-16T07:19:47.072Z,99049.48
2023-02-16T07:22:13.616Z,99044.94
2023-02-16T07:24:40.055Z,99039.89
2023-02-16T07:27:06.804Z,99038.93
2023-02-16T07:29:33.480Z,99037.92
2023-02-16T07:32:00.040Z,99036.51
2023-02-16T07:34:26.653Z,99028.02
2023-02-16T07:36:53.242Z,99026.94
2023-02-16T07:39:19.711Z,99032.44
2023-02-16T07:41:46.249Z,99031.66
2023-02-16T07:44:12.889Z,99029.31
2023-02-16T07:46:39.531Z,99029.13
2023-02-16T07:49:06.174Z,99028.03
2023-02-16T07:51:32.657Z,99020.63
2023-02-16T07:54:00.833Z,99017.13
2023-02-16T07:56:29.994Z,99021.75
2023-02-16T07:58:58.750Z,99020.01
2023-02-16T08:01:25.375Z,99024.14
2023-02-16T08:03:52.360Z,99015.54
2023-02-16T08:06:19.845Z,99011.58
2023-02-16T08:08:46.421Z,99012.20
2023-02-16T08:11:16.221Z,99015.95
2023-02-16T08:13:44.736Z,99017.08
2023-02-16T08:16:16.410Z,99013.90
2023-02-16T08:18:42.981Z,99013.86
2023-02-16T08:21:15.793Z,99010.98
2023-02-16T08:23:54.740Z,99014.23
2023-02-16T08:26:23.459Z,99020.75
2023-02-16T08:28:50.343Z,99024.61
2023-02-16T08:31:19.752Z,99025.41
2023-02-16T08:33:47.359Z,99025.94
2023-02-16T08:36:34.674Z,99025.45
2023-02-16T08:39:03.765Z,99028.61
2023-02-16T08:41:33.734Z,99030.45
2023-02-16T08:44:01.400Z,99033.17
2023-02-16T08:46:29.748Z,99031.73
2023-02-16T08:48:57.044Z,99036.34
2023-02-16T08:51:24.137Z,99035.53
2023-02-16T08:53:53.828Z,99033.77
2023-02-16T08:56:20.258Z,99026.73
2023-02-16T08:58:47.430Z,99029.63
2023-02-16T09:01:15.137Z,99018.05
2023-02-16T09:03:43.168Z,99018.59
2023-02-16T09:06:11.638Z,99014.41
2023-02-16T09:08:38.978Z,99012.69
2023-02-16T09:11:13.402Z,99011.63
2023-02-16T09:13:40.761Z,99009.05
2023-02-16T09:16:21.620Z,99011.59
2023-02-16T09:18:49.119Z,99010.77
2023-02-16T09:21:19.070Z,99001.08
2023-02-16T09:23:47.678Z,98994.52
2023-02-16T09:26:24.714Z,98991.48
2023-02-16T09:28:53.514Z,98984.73
2023-02-16T09:31:28.158Z,98981.33
2023-02-16T09:33:58.207Z,98977.42
2023-02-16T09:36:25.247Z,98976.91
2023-02-16T09:38:52.552Z,98982.05
2023-02-16T09:41:21.945Z,98983.14
2023-02-16T09:44:12.882Z,98980.02
2023-02-16T09:46:41.880Z,98976.21
2023-02-16T09:49:36.226Z,98971.55
2023-02-16T09:52:16.755Z,98969.20
2023-02-16T09:54:52.186Z,98967.44
2023-02-16T09:57:53.919Z,98966.09
2023-02-16T10:00:32.348Z,98963.94
2023-02-16T10:03:17.544Z,98964.49
2023-02-16T10:06:05.675Z,98961.89
2023-02-16T10:08:41.284Z,98957.94
2023-02-16T10:11:30.190Z,98953.45
2023-02-16T10:14:04.210Z,98950.16
2023-02-16T10:16:39.068Z,98949.73
2023-02-16T10:19:18.617Z,98947.96
2023-02-16T10:21:50.075Z,98944.85
2023-02-16T10:24:17.123Z,98941.88
2023-02-16T10:26:51.996Z,98935.38
2023-02-16T10:29:20.683Z,98936.80
2023-02-16T10:31:59.846Z,98939.84
2023-02-16T10:34:43.309Z,98934.04
2023-02-16T10:37:40.778Z,98928.09
2023-02-16T10:40:55.042Z,98927.41
2023-02-16T10:43:34.108Z,98923.39
2023-02-16T10:46:01.635Z,98929.27
2023-02-16T10:48:28.819Z,98924.79
2023-02-16T10:51:03.913Z,98925.48
2023-02-16T10:53:41.736Z,98920.52
2023-02-16T10:56:32.385Z,98918.84
2023-02-16T10:59:00.653Z,98913.35
2023-02-16T11:01:38.039Z,98912.70
2023-02-16T11:04:05.433Z,98911.58
2023-02-16T11:06:32.019Z,98908.58
2023-02-16T11:09:01.383Z,98908.57
2023-02-16T11:11:30.669Z,98915.61
2023-02-16T11:14:03.591Z,98913.83
2023-02-16T11:16:31.421Z,98911.37
2023-02-16T11:19:09.220Z,98906.32
2023-02-16T11:21:54.232Z,98900.91
2023-02-16T11:24:30.091Z,98901.97
2023-02-16T11:27:06.319Z,98904.91
2023-02-16T11:29:33.844Z,98905.67
2023-02-16T11:32:06.748Z,98902.73
2023-02-16T11:34:36.983Z,98897.06
2023-02-16T11:37:14.016Z,98891.45
2023-02-16T11:39:52.366Z,98889.69
2023-02-16T11:42:24.808Z,98886.20
2023-02-16T11:44:54.711Z,98883.06
2023-02-16T11:47:34.937Z,98882.42
2023-02-16T11:50:21.375Z,98880.10
2023-02-16T11:52:49.820Z,98873.88
2023-02-16T11:55:34.485Z,98873.02
2023-02-16T11:58:33.539Z,98873.94
2023-02-16T12:01:08.885Z,98866.01
2023-02-16T12:04:17.003Z,98862.90
2023-02-16T12:07:13.137Z,98859.06
2023-02-16T12:10:00.854Z,98853.49
2023-02-16T12:12:40.304Z,98853.10
2023-02-16T12:15:15.649Z,98851.49
2023-02-16T12:18:00.773Z,98844.33
2023-02-16T12:20:55.520Z,98832.98
2023-02-16T12:23:24.895Z,98828.85
2023-02-16T12:26:36.845Z,98824.05
2023-02-16T12:29:14.451Z,98814.80
2023-02-16T12:32:15.180Z,98816.50
2023-02-16T12:35:26.162Z,98815.34
2023-02-16T12:38:17.546Z,98814.77
2023-02-16T12:40:56.987Z,98806.79
2023-02-16T12:43:47.358Z,98806.84
2023-02-16T12:46:27.427Z,98802.73
2023-02-16T12:49:00.109Z,98797.95
2023-02-16T12:51:48.003Z,98795.85
2023-02-16T12:54:21.090Z,98794.85
2023-02-16T12:56:59.414Z,98794.73
2023-02-16T12:59:47.511Z,98794.70
2023-02-16T13:02:37.253Z,98785.77
2023-02-16T13:05:31.642Z,98786.65
2023-02-16T13:08:06.674Z,98783.65
2023-02-16T13:10:57.705Z,98783.75
2023-02-16T13:13:27.723Z,98780.79
2023-02-16T13:16:20.435Z,98776.20
2023-02-16T13:18:55.959Z,98774.70
2023-02-16T13:21:50.528Z,98772.90
2023-02-16T13:24:31.935Z,98769.02
2023-02-16T13:27:18.080Z,98770.40
2023-02-16T13:29:53.745Z,98763.70
2023-02-16T13:32:37.315Z,98760.29
2023-02-16T13:35:41.850Z,98759.29
2023-02-16T13:38:46.208Z,98755.20
2023-02-16T13:41:27.843Z,98752.80
2023-02-16T13:43:58.298Z,98752.77
2023-02-16T13:46:24.775Z,98752.23
2023-02-16T13:48:52.232Z,98747.60
2023-02-16T13:51:22.197Z,98748.36
2023-02-16T13:53:51.725Z,98747.98
2023-02-16T13:56:37.432Z,98746.33
2023-02-16T13:59:19.210Z,98747.57
2023-02-16T14:01:48.150Z,98746.86
2023-02-16T14:04:23.831Z,98745.23
2023-02-16T14:06:51.325Z,98746.52
2023-02-16T14:09:17.774Z,98751.38
2023-02-16T14:12:09.234Z,98750.76
2023-02-16T14:14:44.030Z,98747.80
2023-02-16T14:17:19.337Z,98746.68
2023-02-16T14:20:00.666Z,98748.59
2023-02-16T14:22:45.531Z,98746.65
2023-02-16T14:25:37.153Z,98749.73
2023-02-16T14:28:22.087Z,98750.27
2023-02-16T14:30:53.283Z,98747.02
2023-02-16T14:33:22.688Z,98752.09
2023-02-16T14:35:58.443Z,98751.36
2023-02-16T14:38:34.550Z,98752.83
2023-02-16T14:41:04.327Z,98753.95
2023-02-16T14:43:33.247Z,98750.79
2023-02-16T14:46:18.731Z,98748.21
2023-02-16T14:49:07.349Z,98750.16
2023-02-16T14:51:36.532Z,98751.69
2023-02-16T14:54:21.364Z,98752.09
2023-02-16T14:56:54.778Z,98751.99
2023-02-16T14:59:33.967Z,98749.77
2023-02-16T15:02:00.929Z,98749.91
2023-02-16T15:04:32.771Z,98749.23
2023-02-16T15:07:03.854Z,98746.29
2023-02-16T15:09:33.740Z,98748.17
2023-02-16T15:12:05.653Z,98754.60
2023-02-16T15:14:37.639Z,98751.69
2023-02-16T15:17:07.571Z,98758.33
2023-02-16T15:19:35.150Z,98761.23
2023-02-16T15:22:19.416Z,98762.15
2023-02-16T15:24:55.784Z,98764.02
2023-02-16T15:27:24.185Z,98763.55
2023-02-16T15:30:20.683Z,98759.05
2023-02-16T15:32:57.208Z,98755.23
2023-02-16T15:35:37.658Z,98753.81
2023-02-16T15:38:13.606Z,98757.55
2023-02-16T15:40:40.376Z,98758.11
2023-02-16T15:43:17.436Z,98761.89
2023-02-16T15:45:49.395Z,98761.41
2023-02-16T15:48:37.102Z,98759.95
2023-02-16T15:51:25.039Z,98758.95
2023-02-16T15:54:03.927Z,98763.94
2023-02-16T15:56:48.485Z,98764.15
2023-02-16T15:59:43.483Z,98764.90
2023-02-16T16:02:17.943Z,98769.85
2023-02-16T16:04:57.769Z,98766.12
2023-02-16T16:07:37.733Z,98765.66
2023-02-16T16:10:16.936Z,98767.02
2023-02-16T16:12:44.831Z,98765.25
2023-02-16T16:15:19.629Z,98769.35
2023-02-16T16:17:46.401Z,98774.06
2023-02-16T16:20:27.945Z,98772.95
2023-02-16T16:22:58.373Z,98776.99
2023-02-16T16:25:34.308Z,98783.23
2023-02-16T16:28:02.367Z,98782.58
2023-02-16T16:30:32.985Z,98783.10
2023-02-16T16:33:08.438Z,98787.70
2023-02-16T16:35:49.759Z,98790.45
2023-02-16T16:38:33.831Z,98793.16
2023-02-16T16:41:03.673Z,98799.28
2023-02-16T16:43:37.845Z,98802.61
2023-02-16T16:46:20.528Z,98803.62
2023-02-16T16:48:50.074Z,98804.97
2023-02-16T16:51:18.541Z,98804.75
2023-02-16T16:53:50.700Z,98807.23
2023-02-16T16:56:17.652Z,98809.05
2023-02-16T16:58:47.782Z,98813.25
2023-02-16T17:01:14.529Z,98811.09
2023-02-16T17:03:41.272Z,98809.47
2023-02-16T17:06:07.721Z,98811.02
2023-02-16T17:08:36.337Z,98813.23
2023-02-16T17:11:04.529Z,98815.41
2023-02-16T17:13:31.936Z,98819.09
2023-02-16T17:16:07.455Z,98817.30
2023-02-16T17:18:34.757Z,98818.62
2023-02-16T17:21:01.270Z,98822.32
2023-02-16T17:23:27.911Z,98820.88
2023-02-16T17:25:54.374Z,98824.52
2023-02-16T17:28:21.509Z,98827.85
2023-02-16T17:30:48.089Z,98823.80
2023-02-16T17:33:14.784Z,98826.41
2023-02-16T17:35:43.474Z,98824.95
2023-02-16T17:38:14.027Z,98827.77
2023-02-16T17:40:40.727Z,98832.27
2023-02-16T17:43:12.635Z,98832.34
2023-02-16T17:45:39.701Z,98834.42
2023-02-16T17:48:07.127Z,98837.89
2023-02-16T17:50:33.964Z,98843.22
2023-02-16T17:53:00.435Z,98845.48
2023-02-16T17:55:27.367Z,98842.80
2023-02-16T17:57:53.865Z,98840.29
2023-02-16T18:00:21.648Z,98843.39
2023-02-16T18:02:48.205Z,98845.30
2023-02-16T18:05:15.356Z,98846.73
2023-02-16T18:07:42.309Z,98847.63
2023-02-16T18:10:16.267Z,98849.70
2023-02-16T18:12:43.164Z,98851.61
2023-02-16T18:15:10.317Z,98847.21
2023-02-16T18:17:37.059Z,98846.05
2023-02-16T18:20:04.568Z,98841.48
2023-02-16T18:22:31.072Z,98846.42
2023-02-16T18:24:57.597Z,98850.01
2023-02-16T18:27:24.045Z,98848.15
2023-02-16T18:29:51.409Z,98847.14
2023-02-16T18:32:17.959Z,98843.58
2023-02-16T18:34:45.225Z,98845.98
2023-02-16T18:37:11.936Z,98845.83
2023-02-16T18:39:38.679Z,98842.77
2023-02-16T18:42:05.222Z,98838.86
2023-02-16T18:44:34.464Z,98841.45
2023-02-16T18:47:01.483Z,98842.15
2023-02-16T18:49:28.637Z,98842.68
2023-02-16T18:51:55.234Z,98844.40
2023-02-16T18:54:21.767Z,98849.03
2023-02-16T18:56:49.887Z,98847.52
2023-02-16T18:59:16.362Z,98846.88
2023-02-16T19:01:43.210Z,98850.48
2023-02-16T19:04:10.244Z,98848.96
2023-02-16T19:06:37.275Z,98854.60
2023-02-16T19:09:04.750Z,98852.25
2023-02-16T19:11:31.789Z,98851.92
2023-02-16T19:13:58.246Z,98852.96
2023-02-16T19:16:24.917Z,98859.28
2023-02-16T19:18:52.014Z,98860.30
2023-02-16T19:21:18.863Z,98858.09
2023-02-16T19:23:45.636Z,98856.73
2023-02-16T19:26:16.620Z,98858.77
2023-02-16T19:28:43.703Z,98859.27
2023-02-16T19:31:21.171Z,98865.42
2023-02-16T19:33:48.309Z,98864.58
2023-02-16T19:36:15.909Z,98863.91
2023-02-16T19:38:43.687Z,98870.04
2023-02-16T19:41:12.105Z,98867.32
2023-02-16T19:43:38.723Z,98865.61
2023-02-16T19:46:06.308Z,98864.77
2023-02-16T19:48:33.648Z,98862.73
2023-02-16T19:51:01.737Z,98864.27
2023-02-16T19:53:30.189Z,98858.64
2023-02-16T19:55:56.908Z,98861.36
2023-02-16T19:58:24.899Z,98858.64
2023-02-16T20:00:52.464Z,98861.02
2023-02-16T20:03:19.189Z,98868.02
2023-02-16T20:05:45.751Z,98867.48
2023-02-16T20:08:12.360Z,98863.05
2023-02-16T20:10:44.984Z,98865.44
2023-02-16T20:13:15.394Z,98870.54
2023-02-16T20:15:42.311Z,98869.00
2023-02-16T20:18:08.796Z,98871.88
2023-02-16T20:20:36.037Z,98873.23
2023-02-16T20:23:02.988Z,98870.67
2023-02-16T20:25:29.831Z,98867.62
2023-02-16T20:27:57.214Z,98874.92
2023-02-16T20:30:24.057Z,98877.13
2023-02-16T20:32:50.762Z,98879.35
2023-02-16T20:35:17.553Z,98877.14
2023-02-16T20:37:44.068Z,98880.20
2023-02-16T20:40:11.324Z,98877.64
2023-02-16T20:42:37.987Z,98879.85
2023-02-16T20:45:05.000Z,98875.93
2023-02-16T20:47:32.983Z,98875.59
2023-02-16T20:49:59.836Z,98878.80
2023-02-16T20:52:26.577Z,98878.30
2023-02-16T20:54:53.030Z,98875.90
2023-02-16T20:57:26.861Z,98868.91
2023-02-16T20:59:55.104Z,98867.02
2023-02-16T21:02:21.707Z,98869.91
2023-02-16T21:04:48.194Z,98870.59
2023-02-16T21:07:14.597Z,98868.38
2023-02-16T21:09:41.081Z,98871.08
2023-02-16T21:12:07.582Z,98867.87
2023-02-16T21:14:34.517Z,98870.77
2023-02-16T21:17:01.178Z,98869.89
2023-02-16T21:19:27.821Z,98865.30
2023-02-16T21:21:54.564Z,98867.68
2023-02-16T21:24:21.188Z,98868.37
2023-02-16T21:26:47.801Z,98869.55
2023-02-16T21:29:14.574Z,98865.28
2023-02-16T21:31:41.188Z,98867.16
2023-02-16T21:34:07.777Z,98861.02
2023-02-16T21:36:34.316Z,98862.89
2023-02-16T21:39:02.889Z,98861.17
2023-02-16T21:41:30.169Z,98859.30
2023-02-16T21:44:10.541Z,98858.95
2023-02-16T21:46:42.320Z,98854.55
2023-02-16T21:49:14.469Z,98857.25
2023-02-16T21:51:42.631Z,98859.45
2023-02-16T21:54:13.819Z,98857.58
2023-02-16T21:56:42.489Z,98856.22
2023-02-16T21:59:12.922Z,98852.81
2023-02-16T22:01:44.853Z,98851.27
2023-02-16T22:04:13.216Z,98850.77
2023-02-16T22:06:42.681Z,98847.71
2023-02-16T22:09:12.966Z,98848.37
2023-02-16T22:11:39.967Z,98843.77
2023-02-16T22:14:06.939Z,98843.75
2023-02-16T22:16:35.669Z,98842.23
2023-02-16T22:19:07.292Z,98840.85
2023-02-16T22:21:39.378Z,98841.37
2023-02-16T22:24:07.717Z,98840.69
2023-02-16T22:26:35.699Z,98844.95
2023-02-16T22:29:06.990Z,98844.92
2023-02-16T22:31:35.275Z,98845.60
2023-02-16T22:34:07.536Z,98838.78
2023-02-16T22:36:36.051Z,98841.33
2023-02-16T22:39:02.611Z,98841.48
2023-02-16T22:41:29.107Z,98837.06
2023-02-16T22:43:56.629Z,98837.73
2023-02-16T22:46:24.220Z,98841.66
2023-02-16T22:48:51.742Z,98836.73
2023-02-16T22:51:20.124Z,98837.07
2023-02-16T22:53:46.969Z,98836.90
2023-02-16T22:56:16.269Z,98838.59
2023-02-16T22:58:43.290Z,98843.35
2023-02-16T23:01:15.663Z,98840.30
2023-02-16T23:03:43.206Z,98838.41
2023-02-16T23:06:17.278Z,98844.01
2023-02-16T23:08:45.468Z,98848.42
2023-02-16T23:11:12.622Z,98845.52
2023-02-16T23:13:39.154Z,98844.49
2023-02-16T23:16:08.819Z,98852.29
2023-02-16T23:18:35.760Z,98843.61
2023-02-16T23:21:20.675Z,98847.04
2023-02-16T23:23:48.896Z,98842.15
2023-02-16T23:26:16.432Z,98840.63
2023-02-16T23:28:44.314Z,98842.66
2023-02-16T23:31:12.099Z,98843.68
2023-02-16T23:33:39.416Z,98848.43
2023-02-16T23:36:06.593Z,98847.07
2023-02-16T23:38:33.845Z,98841.96
2023-02-16T23:41:03.873Z,98845.17
2023-02-16T23:43:31.319Z,98841.94
2023-02-16T23:45:58.914Z,98839.05
2023-02-16T23:48:26.448Z,98838.36
2023-02-16T23:50:55.540Z,98827.98
2023-02-16T23:53:24.263Z,98831.19
2023-02-16T23:56:14.435Z,98832.71
2023-02-16T23:58:42.788Z,98826.94
